createdAt,value
2018-09-30T00:01:29.708Z,9.86
2018-09-30T00:03:30.250Z,31.65
2018-09-30T00:07:30.830Z,19.01
2018-09-30T00:13:31.322Z,12.5
2018-09-30T00:17:31.863Z,12.97
2018-09-30T00:23:32.475Z,9.23
2018-09-30T00:29:32.959Z,13.25
2018-09-30T00:33:33.482Z,14.14
2018-09-30T00:39:33.979Z,16.65
2018-09-30T00:43:34.466Z,12.9
2018-09-30T00:49:34.991Z,14.95
2018-09-30T00:55:35.624Z,33.7
2018-09-30T00:59:36.139Z,13.96
2018-09-30T01:05:36.730Z,14.42
2018-09-30T01:09:37.206Z,14.48
2018-09-30T01:11:37.668Z,10.09
2018-09-30T01:15:38.248Z,11.27
2018-09-30T01:21:38.718Z,13.15
2018-09-30T01:25:39.386Z,19.54
2018-09-30T01:31:39.852Z,11.43
2018-09-30T01:35:40.413Z,14.43
2018-09-30T01:37:40.879Z,8.54
2018-09-30T01:41:41.541Z,10.48
2018-09-30T01:47:42.055Z,7.87
2018-09-30T01:51:42.611Z,10.72
2018-09-30T01:57:43.126Z,9.44
2018-09-30T02:01:43.619Z,7.77
2018-09-30T02:03:44.118Z,12.47
2018-09-30T02:07:44.656Z,13.16
2018-09-30T02:13:45.257Z,16.48
2018-09-30T02:17:45.778Z,15.98
2018-09-30T02:23:46.430Z,8.6
2018-09-30T02:29:46.934Z,7.55
2018-09-30T02:33:47.449Z,14.98
2018-09-30T02:39:48.064Z,11.88
2018-09-30T02:43:48.537Z,11.59
2018-09-30T02:49:49.037Z,10.94
2018-09-30T02:55:49.558Z,7.65
2018-09-30T02:59:50.139Z,23.05
2018-09-30T03:05:50.681Z,11.28
2018-09-30T03:09:51.188Z,11.49
2018-09-30T03:11:51.653Z,12.14
2018-09-30T03:15:52.507Z,19.28
2018-09-30T03:21:53.057Z,7.97
2018-09-30T03:25:53.531Z,11.7
2018-09-30T03:31:54.085Z,10.26
2018-09-30T03:35:54.597Z,13.33
2018-09-30T03:37:55.065Z,7.38
2018-09-30T03:41:55.601Z,21.13
2018-09-30T03:47:56.188Z,11.71
2018-09-30T03:51:56.852Z,10.19
2018-09-30T03:57:57.446Z,11.02
2018-09-30T04:01:57.971Z,10.15
2018-09-30T04:03:58.354Z,20.03
2018-09-30T04:07:59.084Z,9.8
2018-09-30T04:13:59.588Z,9.71
2018-09-30T04:18:00.192Z,15.68
2018-09-30T04:24:00.642Z,13.88
2018-09-30T04:30:01.204Z,15.09
2018-09-30T04:34:01.699Z,13.43
2018-09-30T04:40:02.171Z,15.8
2018-09-30T04:44:02.653Z,18.66
2018-09-30T04:50:03.147Z,7.76
2018-09-30T04:56:03.716Z,10.45
2018-09-30T05:00:04.348Z,18.4
2018-09-30T05:06:04.900Z,13.48
2018-09-30T05:10:05.416Z,9.91
2018-09-30T05:12:05.871Z,11.39
2018-09-30T05:16:06.559Z,14.82
2018-09-30T05:22:07.002Z,16.48
2018-09-30T05:26:07.534Z,9.18
2018-09-30T05:32:08.111Z,9.24
2018-09-30T05:36:08.571Z,10.92
2018-09-30T05:38:09.099Z,16.62
2018-09-30T05:42:09.555Z,22.85
2018-09-30T05:48:10.124Z,27.24
2018-09-30T05:52:10.708Z,28.23
2018-09-30T05:58:11.282Z,35.38
2018-09-30T06:02:11.808Z,32.55
2018-09-30T06:04:12.226Z,17.81
2018-09-30T06:08:12.727Z,27.9
2018-09-30T06:14:13.444Z,35.12
2018-09-30T06:18:13.870Z,42.72
2018-09-30T06:24:14.390Z,44.88
2018-09-30T06:30:15.615Z,69.02
2018-09-30T06:34:16.337Z,79.97
2018-09-30T06:40:16.852Z,56.89
2018-09-30T06:44:17.473Z,86.35
2018-09-30T06:50:18.114Z,71.11
2018-09-30T06:56:18.716Z,45.23
2018-09-30T07:00:19.198Z,39.9
2018-09-30T07:06:19.746Z,34.75
2018-09-30T07:10:20.513Z,21.4
2018-09-30T07:12:20.998Z,17.15
2018-09-30T07:16:21.537Z,35.47
2018-09-30T07:22:22.106Z,19.7
2018-09-30T07:26:22.590Z,13.77
2018-09-30T07:32:23.125Z,15.23
2018-09-30T07:36:23.643Z,12.93
2018-09-30T07:38:24.117Z,49.61
2018-09-30T07:42:24.687Z,82.53
2018-09-30T07:48:25.282Z,34.52
2018-09-30T07:52:25.795Z,37.16
2018-09-30T07:58:26.692Z,22.03
2018-09-30T08:02:27.170Z,15.41
2018-09-30T08:04:27.576Z,20.48
2018-09-30T08:08:28.314Z,11.54
2018-09-30T08:14:28.806Z,10.86
2018-09-30T08:18:29.373Z,17.79
2018-09-30T08:24:29.946Z,11
2018-09-30T08:30:30.360Z,7.14
2018-09-30T08:34:30.894Z,7.47
2018-09-30T08:40:31.359Z,21.41
2018-09-30T08:44:31.898Z,10.69
2018-09-30T08:50:32.416Z,11.48
2018-09-30T08:56:32.926Z,9.48
2018-09-30T09:00:33.456Z,22.05
2018-09-30T09:06:34.096Z,7.2
2018-09-30T09:10:34.709Z,15.47
2018-09-30T09:12:35.189Z,7.32
2018-09-30T09:16:35.801Z,8.14
2018-09-30T09:22:36.897Z,8.24
2018-09-30T09:26:37.435Z,9.7
2018-09-30T09:32:38.030Z,12.44
2018-09-30T09:36:38.495Z,13.03
2018-09-30T09:38:39.149Z,8.33
2018-09-30T09:42:39.653Z,6.08
2018-09-30T09:48:40.300Z,4.35
2018-09-30T09:52:40.831Z,8.55
2018-09-30T09:58:41.297Z,5
2018-09-30T10:02:41.879Z,6.3
2018-09-30T10:04:42.336Z,4.4
2018-09-30T10:08:42.866Z,6.14
2018-09-30T10:14:43.410Z,5.06
2018-09-30T10:18:43.957Z,4.87
2018-09-30T10:24:44.502Z,21.86
2018-09-30T10:30:45.049Z,6.2
2018-09-30T10:34:45.556Z,8.9
2018-09-30T10:40:46.389Z,8.76
2018-09-30T10:44:46.965Z,10.58
2018-09-30T10:50:47.426Z,8.47
2018-09-30T10:56:48.153Z,9.59
2018-09-30T11:00:48.644Z,13.34
2018-09-30T11:06:49.370Z,6.56
2018-09-30T11:10:49.900Z,5.69
2018-09-30T11:12:50.408Z,9.52
2018-09-30T11:16:50.880Z,7.28
2018-09-30T11:22:51.446Z,6.18
2018-09-30T11:26:52.007Z,6.34
2018-09-30T11:32:52.533Z,8.67
2018-09-30T11:36:53.142Z,9.44
2018-09-30T11:38:53.679Z,6.68
2018-09-30T11:42:54.235Z,7.22
2018-09-30T11:48:54.883Z,6.32
2018-09-30T11:52:55.363Z,16.03
2018-09-30T11:58:55.885Z,5.39
2018-09-30T12:04:56.524Z,11.94
2018-09-30T12:08:57.174Z,14.39
2018-09-30T12:14:57.732Z,7.32
2018-09-30T12:18:58.364Z,6.73
2018-09-30T12:24:58.771Z,7.85
2018-09-30T12:30:59.332Z,8.27
2018-09-30T12:34:59.821Z,10.93
2018-09-30T12:41:00.309Z,6.05
2018-09-30T12:45:00.816Z,6.01
2018-09-30T12:47:01.370Z,4.74
2018-09-30T12:51:01.796Z,5.04
2018-09-30T12:57:02.351Z,6.45
2018-09-30T13:01:02.893Z,10.43
2018-09-30T13:07:03.376Z,4.76
2018-09-30T13:11:03.952Z,5.06
2018-09-30T13:13:04.382Z,4.37
2018-09-30T13:17:04.907Z,5.29
2018-09-30T13:23:05.374Z,16.29
2018-09-30T13:27:05.893Z,8.45
2018-09-30T13:33:06.571Z,7.45
2018-09-30T13:39:07.141Z,5.26
2018-09-30T13:43:07.708Z,5.51
2018-09-30T13:49:08.201Z,7.27
2018-09-30T13:53:08.749Z,5.22
2018-09-30T13:59:09.240Z,8.91
2018-09-30T14:05:09.787Z,8.31
2018-09-30T14:09:10.336Z,4.83
2018-09-30T14:15:11.205Z,22.67
2018-09-30T14:19:11.698Z,5.84
2018-09-30T14:21:12.233Z,10.05
2018-09-30T14:25:12.676Z,6.44
2018-09-30T14:31:13.205Z,6.95
2018-09-30T14:35:13.719Z,6.94
2018-09-30T14:41:14.273Z,7.01
2018-09-30T14:45:15.249Z,11.53
2018-09-30T14:47:15.691Z,5.28
2018-09-30T14:51:16.197Z,12.31
2018-09-30T14:57:16.680Z,6.19
2018-09-30T15:01:17.236Z,7.4
2018-09-30T15:07:17.838Z,10.21
2018-09-30T15:13:18.374Z,9.11
2018-09-30T15:17:18.927Z,6.9
2018-09-30T15:23:19.359Z,11.52
2018-09-30T15:27:19.856Z,8.81
2018-09-30T15:33:20.441Z,7.13
2018-09-30T15:39:21.032Z,7.27
2018-09-30T15:43:21.565Z,5.67
2018-09-30T15:49:22.114Z,7.51
2018-09-30T15:53:22.722Z,7.07
2018-09-30T15:55:23.255Z,4.52
2018-09-30T15:59:23.902Z,5.78
2018-09-30T16:05:24.531Z,8.61
2018-09-30T16:09:25.015Z,7
2018-09-30T16:15:25.487Z,8.61
2018-09-30T16:19:26.005Z,5.62
2018-09-30T16:21:26.737Z,7.05
2018-09-30T16:25:27.180Z,12.96
2018-09-30T16:31:27.956Z,6.56
2018-09-30T16:35:28.503Z,10.93
2018-09-30T16:41:29.178Z,10.86
2018-09-30T16:45:30.268Z,9.46
2018-09-30T16:47:30.757Z,6.39
2018-09-30T16:51:31.318Z,10.53
2018-09-30T16:57:31.916Z,13.13
2018-09-30T17:01:32.420Z,9.61
2018-09-30T17:07:32.972Z,34.7
2018-09-30T17:13:33.439Z,34.82
2018-09-30T17:17:33.998Z,26.49
2018-09-30T17:23:34.586Z,14.35
2018-09-30T17:27:35.066Z,12.48
2018-09-30T17:33:35.644Z,12.52
2018-09-30T17:39:36.251Z,31.61
2018-09-30T17:43:36.798Z,19.41
2018-09-30T17:49:37.423Z,9.44
2018-09-30T17:53:37.976Z,13.54
2018-09-30T17:55:38.471Z,11.68
2018-09-30T17:59:38.936Z,14.52
2018-09-30T18:05:39.669Z,19.79
2018-09-30T18:09:40.148Z,8.77
2018-09-30T18:15:40.704Z,8.4
2018-09-30T18:19:41.332Z,13.43
2018-09-30T18:21:41.782Z,31.57
2018-09-30T18:25:42.408Z,14.84
2018-09-30T18:31:42.940Z,10.09
2018-09-30T18:35:43.468Z,12
2018-09-30T18:41:44.067Z,30.33
2018-09-30T18:47:44.582Z,14.41
2018-09-30T18:51:45.088Z,13.79
2018-09-30T18:57:45.574Z,11.17
2018-09-30T19:01:46.055Z,15.98
2018-09-30T19:07:46.544Z,13.9
2018-09-30T19:13:47.244Z,11.44
2018-09-30T19:17:47.660Z,19.31
2018-09-30T19:23:48.260Z,14.23
2018-09-30T19:27:48.857Z,13.53
2018-09-30T19:29:49.412Z,9.8
2018-09-30T19:33:49.862Z,9.97
2018-09-30T19:39:50.500Z,21.67
2018-09-30T19:43:51.051Z,18.05
2018-09-30T19:49:51.710Z,22.52
2018-09-30T19:53:52.244Z,8.57
2018-09-30T19:55:52.746Z,11.27
2018-09-30T19:59:53.255Z,19.15
2018-09-30T20:05:53.823Z,12.51
2018-09-30T20:09:54.383Z,12.12
2018-09-30T20:15:54.946Z,12.4
2018-09-30T20:19:55.408Z,13.46
2018-09-30T20:21:55.850Z,13.54
2018-09-30T20:25:56.444Z,14.55
2018-09-30T20:31:57.046Z,14.63
2018-09-30T20:35:57.623Z,17.63
2018-09-30T20:41:58.190Z,9.9
2018-09-30T20:47:59.122Z,24.1
2018-09-30T20:51:59.561Z,17.41
2018-09-30T20:58:00.073Z,12.06
2018-09-30T21:02:00.785Z,8.31
2018-09-30T21:08:01.368Z,11.36
2018-09-30T21:14:01.896Z,9.6
2018-09-30T21:18:02.426Z,9.39
2018-09-30T21:24:02.967Z,10.89
2018-09-30T21:28:03.521Z,11.45
2018-09-30T21:30:04.015Z,8.4
2018-09-30T21:34:04.565Z,7.94
2018-09-30T21:40:05.091Z,11.45
2018-09-30T21:44:05.884Z,10.05
2018-09-30T21:50:06.613Z,31.83
2018-09-30T21:54:07.302Z,17.23
2018-09-30T21:56:07.780Z,21.95
2018-09-30T22:00:08.320Z,12.81
2018-09-30T22:06:09.008Z,17.45
2018-09-30T22:10:09.647Z,12.06
2018-09-30T22:16:10.854Z,13.11
2018-09-30T22:22:11.390Z,10.21
2018-09-30T22:26:12.296Z,14.53
2018-09-30T22:32:12.871Z,26.38
2018-09-30T22:36:13.383Z,23.34
2018-09-30T22:42:13.941Z,11.54
2018-09-30T22:48:14.506Z,8.45
2018-09-30T22:52:15.045Z,8.56
2018-09-30T22:58:15.550Z,7.67
2018-09-30T23:02:16.175Z,18.61
2018-09-30T23:08:16.793Z,11.72
2018-09-30T23:14:17.351Z,18.31
2018-09-30T23:18:17.846Z,18.1
2018-09-30T23:24:18.448Z,7.95
2018-09-30T23:28:19.009Z,11.91
2018-09-30T23:30:19.844Z,7.11
2018-09-30T23:34:20.400Z,7.78
2018-09-30T23:40:20.954Z,20.37
2018-09-30T23:44:21.545Z,14.49
2018-09-30T23:50:22.054Z,16.7
2018-09-30T23:54:22.648Z,12.87
2018-09-30T23:56:23.269Z,7.79
